Time;durP1;ratioP1;P1;durP2;ratioP2;P2;SDS_P1;SDS_P2;PMS_P1;PMS_P2;Temp;Humidity;BMP_temperature;BMP_pressure;BME280_temperature;BME280_humidity;BME280_pressure;Samples;Min_cycle;Max_cycle;Signal;HPM_P1;HPM_P2
2022/06/07 07:31:36;;;;;;;16.20;6.00;;;;;;;31.63;53.93;98779.82;105872;1276;111480;-67
2022/06/07 07:34:07;;;;;;;;;;;;;;;32.54;53.62;98777.63;105821;1277;97872;-67
2022/06/07 07:36:41;;;;;;;12.30;5.70;;;;;;;33.45;53.11;98776.74;105778;1277;107815;-67
2022/06/07 07:39:11;;;;;;;14.50;6.30;;;;;;;34.10;52.73;98777.88;105746;1276;97884;-68
2022/06/07 07:41:41;;;;;;;14.50;5.60;;;;;;;33.97;53.21;98778.58;105834;1277;97998;-66
2022/06/07 07:44:13;;;;;;;11.10;5.80;;;;;;;34.00;52.63;98780.52;105834;1277;111352;-67
2022/06/07 07:46:44;;;;;;;9.70;5.20;;;;;;;34.52;51.56;98777.18;105794;1276;97888;-67
2022/06/07 07:49:15;;;;;;;9.80;5.20;;;;;;;35.22;51.14;98783.27;105709;1277;107930;-66
2022/06/07 07:51:47;;;;;;;10.90;5.20;;;;;;;35.85;50.80;98782.61;105781;1277;98014;-68
2022/06/07 07:54:22;;;;;;;10.60;5.20;;;;;;;35.81;50.69;98778.98;105844;1278;95203;-67
2022/06/07 07:56:52;;;;;;;14.90;5.70;;;;;;;36.11;49.70;98772.54;105805;1276;111498;-67
2022/06/07 07:59:22;;;;;;;13.20;5.50;;;;;;;36.40;48.79;98773.59;105800;1277;98351;-69
2022/06/07 08:01:51;;;;;;;14.30;5.30;;;;;;;37.00;48.60;98772.42;105654;1277;107837;-68
2022/06/07 08:04:20;;;;;;;9.80;4.20;;;;;;;37.58;48.23;98777.79;105517;1277;96407;-67
2022/06/07 08:06:50;;;;;;;8.10;4.10;;;;;;;37.91;47.44;98772.25;105776;1276;96243;-67
2022/06/07 08:09:22;;;;;;;10.10;4.90;;;;;;;38.23;46.97;98772.19;105832;1276;112127;-67
2022/06/07 08:11:51;;;;;;;9.60;4.90;;;;;;;38.56;46.64;98772.01;105782;1278;96187;-69
2022/06/07 08:14:23;;;;;;;9.00;4.70;;;;;;;38.87;46.08;98766.33;105841;1276;108356;-68
2022/06/07 08:16:54;;;;;;;7.60;4.20;;;;;;;39.17;45.77;98766.65;105763;1277;97902;-72
2022/06/07 08:19:22;;;;;;;7.80;4.40;;;;;;;39.36;44.93;98769.45;105877;1276;95246;-69
2022/06/07 08:21:50;;;;;;;7.60;4.30;;;;;;;39.65;44.64;98772.48;105781;1276;111314;-69
2022/06/07 08:24:27;;;;;;;8.90;4.70;;;;;;;39.72;43.81;98770.29;105877;1277;98473;-70
2022/06/07 08:26:55;;;;;;;8.60;4.30;;;;;;;39.98;43.70;98766.31;105834;1276;107145;-69
2022/06/07 08:29:23;;;;;;;8.00;4.40;;;;;;;39.94;42.93;98765.01;105746;1277;97999;-67
2022/06/07 08:31:51;;;;;;;7.20;4.20;;;;;;;39.63;42.41;98765.59;105729;1276;96561;-71
2022/06/07 08:39:55;;;;;;;8.40;3.70;;;;;;;39.83;40.84;98768.89;105688;1277;107613;-69
2022/06/07 08:42:34;;;;;;;7.60;3.50;;;;;;;39.91;40.45;98758.14;105513;1277;97988;-69
2022/06/07 08:45:19;;;;;;;7.90;4.10;;;;;;;39.96;40.21;98760.11;105731;1276;97871;-70
2022/06/07 08:47:56;;;;;;;6.70;4.00;;;;;;;39.97;39.61;98761.98;105729;1276;110976;-68
2022/06/07 08:50:33;;;;;;;7.90;3.80;;;;;;;39.19;39.32;98761.50;105798;1276;98365;-69
2022/06/07 08:53:16;;;;;;;7.70;3.70;;;;;;;38.70;38.70;98762.20;105809;1277;107576;-71
2022/06/07 08:55:49;;;;;;;7.10;3.80;;;;;;;38.50;38.34;98761.28;105817;1277;97900;-68
2022/06/07 08:58:37;;;;;;;4.90;3.70;;;;;;;38.46;37.93;98758.08;105715;1279;97893;-69
2022/06/07 09:01:23;;;;;;;8.00;4.00;;;;;;;38.56;37.12;98758.13;105761;1276;111988;-69
2022/06/07 09:04:21;;;;;;;8.90;4.30;;;;;;;38.42;36.82;98756.02;105816;1276;99495;-66
2022/06/07 09:06:56;;;;;;;7.60;3.80;;;;;;;37.90;36.24;98751.77;105674;1277;108131;-68
2022/06/07 09:12:21;;;;;;;7.40;4.30;;;;;;;37.88;36.20;98752.73;105666;1277;97892;-68
2022/06/07 09:15:03;;;;;;;8.50;4.00;;;;;;;37.73;35.96;98747.19;105723;1277;111842;-71
2022/06/07 09:17:46;;;;;;;8.30;3.80;;;;;;;37.58;35.42;98742.30;105774;1277;97101;-68
2022/06/07 09:20:21;;;;;;;7.40;4.00;;;;;;;37.36;35.38;98743.66;105663;1278;108433;-70
2022/06/07 09:23:12;;;;;;;8.90;4.10;;;;;;;37.41;35.53;98744.52;105795;1277;97917;-70
2022/06/07 09:25:48;;;;;;;7.40;4.30;;;;;;;37.40;35.14;98740.30;105785;1276;97875;-69
2022/06/07 09:28:35;;;;;;;7.70;3.80;;;;;;;37.18;34.21;98739.39;105747;1278;111394;-68
2022/06/07 09:31:10;;;;;;;8.40;4.30;;;;;;;36.53;34.17;98735.44;105540;1276;98402;-71
2022/06/07 09:34:05;;;;;;;9.80;4.10;;;;;;;36.15;34.22;98732.16;105685;1276;107834;-69
2022/06/07 09:36:40;;;;;;;8.80;4.20;;;;;;;36.10;34.34;98730.80;105780;1277;99096;-72
2022/06/07 09:39:29;;;;;;;6.80;4.10;;;;;;;36.14;34.19;98732.32;105833;1277;97605;-71
2022/06/07 09:42:28;;;;;;;9.00;4.10;;;;;;;36.22;34.05;98729.13;105810;1277;111478;-71
2022/06/07 09:45:01;;;;;;;7.10;4.10;;;;;;;36.25;34.01;98723.00;105831;1276;99514;-69
2022/06/07 09:47:31;;;;;;;7.90;4.10;;;;;;;36.34;33.87;98720.02;105854;1277;107824;-69
2022/06/07 09:50:19;;;;;;;5.10;3.80;;;;;;;36.37;33.59;98721.45;105779;1277;98473;-72
2022/06/07 09:52:57;;;;;;;6.10;4.20;;;;;;;36.38;33.56;98716.68;105846;1277;97979;-73
2022/06/07 09:55:38;;;;;;;8.10;4.10;;;;;;;36.33;33.45;98711.89;105848;1278;111377;-71
2022/06/07 09:58:13;;;;;;;8.20;4.20;;;;;;;36.29;33.41;98709.56;105861;1277;97957;-69
2022/06/07 10:01:04;;;;;;;10.70;4.40;;;;;;;35.73;32.83;98708.21;105639;1280;107652;-72
2022/06/07 10:03:50;;;;;;;8.70;4.90;;;;;;;35.27;33.25;98706.67;105707;1276;97938;-73
2022/06/07 10:06:43;;;;;;;23.80;5.50;;;;;;;34.89;33.03;98703.52;105749;1276;97867;-71
2022/06/07 10:09:41;;;;;;;8.60;4.40;;;;;;;34.57;33.12;98705.85;105752;1278;111404;-69
2022/06/07 10:12:24;;;;;;;10.80;4.70;;;;;;;34.35;32.99;98701.77;105753;1276;96427;-70
2022/06/07 10:15:02;;;;;;;7.90;4.90;;;;;;;33.93;32.64;98705.02;105767;1277;107793;-69
2022/06/07 10:17:51;;;;;;;8.30;4.80;;;;;;;33.39;32.60;98702.36;105785;1278;98002;-70
2022/06/07 10:20:29;;;;;;;9.60;5.00;;;;;;;33.02;32.87;98701.73;105785;1277;96351;-70
2022/06/07 10:23:18;;;;;;;10.10;4.80;;;;;;;32.72;32.85;98696.38;105773;1277;111463;-70
